Time;durP1;ratioP1;P1;durP2;ratioP2;P2;SDS_P1;SDS_P2;PMS_P1;PMS_P2;Temp;Humidity;BMP_temperature;BMP_pressure;BME280_temperature;BME280_humidity;BME280_pressure;Samples;Min_cycle;Max_cycle;Signal;HPM_P1;HPM_P2
2022/07/19 00:02:11;;;;;;;3.70;3.40;;;24.30;47.10;;;;;;4994191;28;20213;-71
2022/07/19 00:04:38;;;;;;;3.97;3.58;;;24.30;47.10;;;;;;4976316;28;20633;-71
2022/07/19 00:07:05;;;;;;;3.53;3.22;;;24.30;47.20;;;;;;4976322;28;20213;-71
2022/07/19 00:09:33;;;;;;;4.13;3.35;;;24.30;47.20;;;;;;4994035;28;20260;-71
2022/07/19 00:12:01;;;;;;;3.60;3.30;;;24.30;47.30;;;;;;4994064;28;20193;-71
2022/07/19 00:14:27;;;;;;;3.78;3.47;;;24.30;47.40;;;;;;4976451;28;20316;-71
2022/07/19 00:16:56;;;;;;;4.68;3.45;;;24.20;47.30;;;;;;4976135;28;20662;-71
2022/07/19 00:19:23;;;;;;;4.15;3.35;;;24.20;47.40;;;;;;4976101;28;20662;-71
2022/07/19 00:21:50;;;;;;;3.78;3.00;;;24.20;47.40;;;;;;4976206;28;20197;-71
2022/07/19 00:24:17;;;;;;;4.45;3.40;;;24.20;47.50;;;;;;4976156;28;20774;-71
2022/07/19 00:26:45;;;;;;;3.65;3.30;;;24.20;47.50;;;;;;4976506;28;20207;-71
2022/07/19 00:29:12;;;;;;;3.30;3.00;;;24.20;47.60;;;;;;4993743;28;20613;-71
2022/07/19 00:31:39;;;;;;;3.65;3.35;;;24.20;47.60;;;;;;4976808;28;20212;-71
2022/07/19 00:34:07;;;;;;;3.10;2.88;;;24.10;47.50;;;;;;4980099;28;20640;-71
2022/07/19 00:36:34;;;;;;;3.40;3.10;;;24.10;47.50;;;;;;4997421;28;20197;-71
2022/07/19 00:39:02;;;;;;;3.35;3.05;;;24.10;47.50;;;;;;4979861;28;20284;-71
2022/07/19 00:41:29;;;;;;;3.40;2.90;;;24.10;47.60;;;;;;4979662;28;20329;-70
2022/07/19 00:43:58;;;;;;;3.30;3.00;;;24.00;47.50;;;;;;4979815;28;20267;-71
2022/07/19 00:46:25;;;;;;;3.35;3.05;;;24.10;47.70;;;;;;4997205;28;20662;-71
2022/07/19 00:48:53;;;;;;;2.90;2.70;;;24.10;47.70;;;;;;4979705;28;20655;-71
2022/07/19 00:51:19;;;;;;;3.50;3.08;;;24.00;47.50;;;;;;4980172;28;20186;-71
2022/07/19 00:53:46;;;;;;;3.15;2.95;;;24.00;47.50;;;;;;4979762;28;20701;-71
2022/07/19 00:56:14;;;;;;;3.20;3.00;;;24.00;47.60;;;;;;4979745;28;20207;-70
2022/07/19 00:58:41;;;;;;;3.20;2.90;;;24.00;47.70;;;;;;4979530;28;20220;-71
2022/07/19 01:01:10;;;;;;;3.50;3.03;;;24.00;47.70;;;;;;4997151;28;20213;-71
2022/07/19 01:03:38;;;;;;;4.22;3.40;;;24.00;47.70;;;;;;4979496;28;20594;-70
2022/07/19 01:06:06;;;;;;;3.00;2.80;;;24.00;47.70;;;;;;4996886;28;20182;-71
2022/07/19 01:08:33;;;;;;;3.00;2.80;;;24.00;47.80;;;;;;4979286;28;20224;-71
2022/07/19 01:11:00;;;;;;;3.10;2.83;;;24.00;47.80;;;;;;4979286;28;20198;-70
2022/07/19 01:13:27;;;;;;;3.03;2.70;;;23.90;47.70;;;;;;4979220;28;20244;-71
2022/07/19 01:15:55;;;;;;;3.50;3.20;;;23.90;47.80;;;;;;4979221;28;20266;-71
2022/07/19 01:18:23;;;;;;;3.05;2.78;;;23.90;47.80;;;;;;4979332;28;20202;-71
2022/07/19 01:20:51;;;;;;;3.10;2.80;;;23.90;48.40;;;;;;4979110;28;20225;-71
2022/07/19 01:23:19;;;;;;;4.03;2.90;;;23.80;47.80;;;;;;4979169;28;20280;-72
2022/07/19 01:25:46;;;;;;;3.22;2.92;;;23.90;47.90;;;;;;4979045;28;20689;-71
2022/07/19 01:28:14;;;;;;;3.28;2.88;;;23.80;47.90;;;;;;4996528;28;20200;-71
2022/07/19 01:30:41;;;;;;;3.35;2.85;;;23.80;47.90;;;;;;4979060;28;20204;-71
2022/07/19 01:33:08;;;;;;;3.40;3.10;;;23.80;47.90;;;;;;4978861;28;20205;-71
2022/07/19 01:35:35;;;;;;;3.10;2.90;;;23.80;47.90;;;;;;4979084;28;20200;-71
2022/07/19 01:38:03;;;;;;;3.03;2.83;;;23.80;47.90;;;;;;4978840;28;20221;-70
2022/07/19 01:40:33;;;;;;;3.50;3.20;;;23.80;47.90;;;;;;4978869;28;20221;-71
2022/07/19 01:43:00;;;;;;;3.20;2.90;;;23.80;48.50;;;;;;4978427;28;20260;-71
2022/07/19 01:45:27;;;;;;;3.40;3.10;;;23.80;47.90;;;;;;4978364;28;20224;-71
2022/07/19 01:47:54;;;;;;;3.30;3.00;;;23.80;48.00;;;;;;4978826;28;20224;-71
2022/07/19 01:50:21;;;;;;;2.80;2.60;;;23.70;47.90;;;;;;4996180;28;20608;-71
2022/07/19 01:52:49;;;;;;;3.10;2.80;;;23.70;48.00;;;;;;4978619;28;20193;-71
2022/07/19 01:55:15;;;;;;;3.20;2.90;;;23.70;47.90;;;;;;4978577;28;20742;-71
2022/07/19 01:57:45;;;;;;;3.40;2.90;;;23.70;48.00;;;;;;4978494;28;20212;-71
2022/07/19 02:00:13;;;;;;;3.05;2.80;;;23.70;48.00;;;;;;4996395;28;20279;-71
2022/07/19 02:02:41;;;;;;;3.30;2.97;;;23.70;48.00;;;;;;4978497;28;20208;-71
2022/07/19 02:05:09;;;;;;;3.22;3.03;;;23.70;48.00;;;;;;4978325;28;20236;-71
2022/07/19 02:07:36;;;;;;;3.60;2.92;;;23.60;48.00;;;;;;4978395;28;20237;-71
2022/07/19 02:10:04;;;;;;;2.92;2.72;;;23.70;48.70;;;;;;4978381;28;20212;-71
2022/07/19 02:12:31;;;;;;;4.57;2.97;;;23.60;48.00;;;;;;4996032;28;20205;-71
2022/07/19 02:15:00;;;;;;;3.20;2.90;;;23.60;48.00;;;;;;4978276;28;20222;-71
2022/07/19 02:17:27;;;;;;;3.13;2.88;;;23.60;48.10;;;;;;4978454;28;20240;-71
2022/07/19 02:19:54;;;;;;;3.20;2.90;;;23.60;48.00;;;;;;4996030;28;20200;-71
2022/07/19 02:22:21;;;;;;;3.33;2.78;;;23.60;48.10;;;;;;4978461;28;20219;-71
2022/07/19 02:24:49;;;;;;;3.10;2.80;;;23.50;48.10;;;;;;4978485;28;20319;-71
2022/07/19 02:27:16;;;;;;;2.63;2.42;;;23.50;48.10;;;;;;4995680;28;20221;-71
2022/07/19 02:29:43;;;;;;;3.28;2.97;;;23.50;48.10;;;;;;4978397;28;20256;-71
2022/07/19 02:32:12;;;;;;;3.10;2.90;;;23.50;48.20;;;;;;4996251;28;20216;-71
2022/07/19 02:34:39;;;;;;;2.97;2.70;;;23.50;48.20;;;;;;4999835;28;20201;-72
2022/07/19 02:37:06;;;;;;;2.80;2.60;;;23.50;48.10;;;;;;4989735;28;20204;-71
2022/07/19 02:39:33;;;;;;;2.90;2.70;;;23.50;48.20;;;;;;4981200;28;20209;-71
2022/07/19 02:42:00;;;;;;;3.88;2.70;;;23.50;48.20;;;;;;4980108;28;20217;-71
2022/07/19 02:44:27;;;;;;;2.65;2.45;;;23.40;48.20;;;;;;4979234;28;20721;-71
2022/07/19 02:46:54;;;;;;;3.13;2.92;;;23.40;48.20;;;;;;4978837;28;20201;-70
2022/07/19 02:49:22;;;;;;;3.63;2.75;;;23.40;48.20;;;;;;4978162;28;20194;-71
2022/07/19 02:51:49;;;;;;;3.03;2.83;;;23.40;48.20;;;;;;4978257;28;20217;-71
2022/07/19 02:54:17;;;;;;;3.08;2.85;;;23.40;48.30;;;;;;4977633;28;20221;-71
2022/07/19 02:56:45;;;;;;;3.13;2.92;;;23.40;48.30;;;;;;4979780;28;20198;-71
2022/07/19 02:59:12;;;;;;;3.65;3.00;;;23.40;48.30;;;;;;4977435;28;20663;-71
2022/07/19 03:01:39;;;;;;;2.70;2.50;;;23.40;48.30;;;;;;4977764;28;20221;-71
2022/07/19 03:04:06;;;;;;;3.78;2.90;;;23.30;48.30;;;;;;4977546;28;20233;-71
2022/07/19 03:06:34;;;;;;;2.97;2.70;;;23.30;48.30;;;;;;4994809;28;20197;-71
2022/07/19 03:09:01;;;;;;;2.60;2.35;;;23.30;48.30;;;;;;4977212;28;20224;-71
2022/07/19 03:11:29;;;;;;;3.22;2.80;;;23.30;48.30;;;;;;4994857;28;20259;-71
2022/07/19 03:13:56;;;;;;;2.83;2.63;;;23.30;48.40;;;;;;4977158;28;20228;-72
2022/07/19 03:16:23;;;;;;;3.00;2.67;;;23.30;48.40;;;;;;4977362;28;20234;-71
2022/07/19 03:18:50;;;;;;;2.88;2.67;;;23.30;48.40;;;;;;4977372;28;20647;-72
2022/07/19 03:21:17;;;;;;;2.72;2.53;;;23.20;48.30;;;;;;4976992;28;20252;-72
2022/07/19 03:23:45;;;;;;;3.15;2.95;;;23.30;48.50;;;;;;4977059;28;20209;-72
2022/07/19 03:26:13;;;;;;;3.00;2.80;;;23.30;48.40;;;;;;4994724;28;20197;-72
2022/07/19 03:28:40;;;;;;;3.20;2.80;;;23.30;48.30;;;;;;4976966;28;20287;-71
2022/07/19 03:31:06;;;;;;;3.00;2.70;;;23.30;48.30;;;;;;4977181;28;20204;-72
2022/07/19 03:33:34;;;;;;;2.90;2.60;;;23.30;48.30;;;;;;4994520;28;20217;-72
2022/07/19 03:36:01;;;;;;;3.20;2.90;;;23.30;48.30;;;;;;4994302;28;20254;-71
2022/07/19 03:38:28;;;;;;;2.90;2.70;;;23.30;48.30;;;;;;4976754;28;20197;-72
2022/07/19 03:40:56;;;;;;;3.00;2.70;;;23.30;48.40;;;;;;4976824;28;20706;-71
2022/07/19 03:43:23;;;;;;;2.92;2.72;;;23.30;48.40;;;;;;4976636;28;20575;-72
2022/07/19 03:45:50;;;;;;;3.10;2.80;;;23.30;48.40;;;;;;4977075;28;20208;-72
2022/07/19 03:48:18;;;;;;;2.90;2.70;;;23.30;48.40;;;;;;4976738;28;20236;-71
2022/07/19 03:50:45;;;;;;;2.80;2.60;;;23.20;48.30;;;;;;4994284;28;20205;-72
2022/07/19 03:53:13;;;;;;;2.97;2.65;;;23.30;48.30;;;;;;4976566;28;20221;-72
2022/07/19 03:55:40;;;;;;;2.92;2.72;;;23.20;48.40;;;;;;4976445;28;20196;-71
2022/07/19 03:58:08;;;;;;;3.03;2.72;;;23.20;48.30;;;;;;4976540;28;20197;-71
2022/07/19 04:00:35;;;;;;;2.90;2.42;;;23.20;48.30;;;;;;4994322;28;20279;-71
2022/07/19 04:03:02;;;;;;;2.80;2.60;;;23.20;48.30;;;;;;4976409;28;20208;-71
2022/07/19 04:05:29;;;;;;;2.83;2.63;;;23.20;48.30;;;;;;4976285;28;20221;-71
2022/07/19 04:07:57;;;;;;;2.75;2.55;;;23.10;48.30;;;;;;4976087;28;20212;-72
2022/07/19 04:10:23;;;;;;;3.33;2.88;;;23.10;48.30;;;;;;4976341;28;20205;-71
2022/07/19 04:12:50;;;;;;;3.50;2.80;;;23.20;48.40;;;;;;4994098;28;20685;-71
2022/07/19 04:15:19;;;;;;;2.92;2.72;;;23.10;48.30;;;;;;4993642;28;20209;-71
2022/07/19 04:17:46;;;;;;;3.58;2.70;;;23.10;48.30;;;;;;4976274;28;20224;-71
2022/07/19 04:20:13;;;;;;;3.38;2.80;;;23.10;48.30;;;;;;4976661;28;20229;-72
2022/07/19 04:22:41;;;;;;;2.88;2.65;;;23.10;48.30;;;;;;4977215;28;20224;-71
2022/07/19 04:25:09;;;;;;;2.67;2.47;;;23.10;48.40;;;;;;4993660;28;20217;-71
2022/07/19 04:27:36;;;;;;;3.47;2.92;;;23.10;48.40;;;;;;4976220;28;20208;-71
2022/07/19 04:30:03;;;;;;;3.85;2.70;;;23.10;48.30;;;;;;4976241;28;20208;-71
2022/07/19 04:32:33;;;;;;;4.43;2.90;;;23.00;48.30;;;;;;4993645;28;20571;-71
2022/07/19 04:35:00;;;;;;;4.55;3.00;;;23.10;48.40;;;;;;4993666;28;20216;-71
2022/07/19 04:37:28;;;;;;;3.03;2.83;;;23.10;48.70;;;;;;4976157;28;20205;-71
2022/07/19 04:39:54;;;;;;;3.33;2.60;;;23.10;48.70;;;;;;4976237;28;20208;-71
2022/07/19 04:42:22;;;;;;;2.85;2.63;;;23.10;48.70;;;;;;4976237;28;20563;-71
2022/07/19 04:44:49;;;;;;;3.72;2.88;;;23.10;48.60;;;;;;4976256;28;20218;-71
2022/07/19 04:47:16;;;;;;;4.53;3.15;;;23.10;48.70;;;;;;4976341;28;20202;-71
2022/07/19 04:49:45;;;;;;;3.00;2.80;;;23.10;48.70;;;;;;4976460;28;20201;-71
2022/07/19 04:52:12;;;;;;;3.28;2.72;;;23.10;48.50;;;;;;4976430;28;20655;-71
2022/07/19 04:54:39;;;;;;;3.25;2.95;;;23.30;48.70;;;;;;4976341;28;20249;-71
2022/07/19 04:57:06;;;;;;;3.45;2.95;;;23.40;48.50;;;;;;4976653;28;20197;-71
2022/07/19 04:59:33;;;;;;;3.53;3.20;;;23.60;48.40;;;;;;4977112;28;20211;-71
2022/07/19 05:01:59;;;;;;;3.60;2.90;;;23.70;48.00;;;;;;4976562;28;20224;-71
2022/07/19 05:04:26;;;;;;;3.15;2.80;;;23.90;47.70;;;;;;4993682;28;20227;-71
2022/07/19 05:06:57;;;;;;;3.40;3.10;;;24.10;47.40;;;;;;4993688;28;20193;-72
2022/07/19 05:09:24;;;;;;;3.10;2.80;;;24.20;47.20;;;;;;4976366;28;20252;-72
2022/07/19 05:11:51;;;;;;;3.88;3.05;;;24.30;46.90;;;;;;4994412;28;20195;-72
2022/07/19 05:14:19;;;;;;;3.00;2.80;;;24.50;46.80;;;;;;4975889;28;20598;-72
2022/07/19 05:16:46;;;;;;;3.95;2.95;;;24.60;46.50;;;;;;4976198;28;20292;-72
2022/07/19 05:19:13;;;;;;;2.92;2.63;;;24.70;46.90;;;;;;4977582;28;20268;-72
2022/07/19 05:21:40;;;;;;;3.20;2.90;;;24.80;46.20;;;;;;4979705;28;20217;-72
2022/07/19 05:24:08;;;;;;;2.63;2.42;;;24.90;46.00;;;;;;4979801;28;20221;-72
2022/07/19 05:26:35;;;;;;;3.10;2.80;;;25.00;45.80;;;;;;4979436;28;20213;-72
2022/07/19 05:29:03;;;;;;;4.20;3.08;;;25.10;45.70;;;;;;4996759;28;20282;-72
2022/07/19 05:31:30;;;;;;;3.65;2.92;;;25.20;45.40;;;;;;4979117;28;20189;-72
2022/07/19 05:33:57;;;;;;;3.38;2.63;;;25.30;45.40;;;;;;4978913;28;20694;-71
2022/07/19 05:36:25;;;;;;;4.03;2.97;;;25.30;45.10;;;;;;4996405;28;20248;-72
2022/07/19 05:38:53;;;;;;;3.70;3.10;;;25.40;45.10;;;;;;4978862;28;20193;-72
2022/07/19 05:41:21;;;;;;;2.92;2.60;;;25.50;45.00;;;;;;4979081;28;20296;-72
2022/07/19 05:43:48;;;;;;;3.60;3.20;;;25.60;44.70;;;;;;4996519;28;20224;-72
2022/07/19 05:46:15;;;;;;;3.10;2.80;;;25.60;44.60;;;;;;4996397;28;20220;-72
2022/07/19 05:48:43;;;;;;;4.70;2.90;;;25.70;44.50;;;;;;4978792;28;20202;-72
2022/07/19 05:51:10;;;;;;;3.28;2.97;;;25.80;44.80;;;;;;4996260;28;20194;-72
2022/07/19 05:53:37;;;;;;;3.53;2.78;;;25.90;44.10;;;;;;4978534;28;20702;-72
2022/07/19 05:56:04;;;;;;;5.30;3.00;;;26.00;44.00;;;;;;4978773;28;20252;-72
2022/07/19 05:58:33;;;;;;;3.35;3.05;;;26.10;43.90;;;;;;4978812;28;20197;-72
2022/07/19 06:01:18;;;;;;;4.47;2.95;;;26.10;43.70;;;;;;4996734;28;20198;-72
2022/07/19 06:03:46;;;;;;;3.22;2.75;;;26.20;43.60;;;;;;4978619;28;20247;-72
2022/07/19 06:06:13;;;;;;;2.88;2.67;;;26.30;43.40;;;;;;4978698;28;20216;-72
2022/07/19 06:08:40;;;;;;;3.63;2.97;;;26.30;43.30;;;;;;4995840;28;20200;-72
2022/07/19 06:11:07;;;;;;;3.42;2.72;;;26.40;43.20;;;;;;4978573;28;20205;-72
2022/07/19 06:13:36;;;;;;;4.60;3.05;;;26.40;43.30;;;;;;4978289;28;20241;-72
2022/07/19 06:16:03;;;;;;;3.63;2.90;;;26.40;43.20;;;;;;4978354;28;20198;-72
2022/07/19 06:18:34;;;;;;;3.28;3.00;;;26.50;43.40;;;;;;4979051;28;20197;-72
2022/07/19 06:21:01;;;;;;;3.00;2.80;;;26.50;43.10;;;;;;4978883;28;20194;-72
2022/07/19 06:23:29;;;;;;;3.30;2.95;;;26.60;43.40;;;;;;4977959;28;20233;-72
2022/07/19 06:25:56;;;;;;;4.43;2.72;;;26.60;43.00;;;;;;4977946;28;20201;-72
2022/07/19 06:28:23;;;;;;;4.80;3.03;;;26.60;43.70;;;;;;4977700;28;20667;-72
2022/07/19 06:30:52;;;;;;;3.55;2.92;;;26.80;43.00;;;;;;4995907;28;20224;-71
2022/07/19 06:33:19;;;;;;;4.45;3.47;;;26.90;42.70;;;;;;4995489;28;20193;-72
2022/07/19 06:35:46;;;;;;;3.55;3.00;;;27.00;42.50;;;;;;4978006;28;20240;-72
2022/07/19 06:38:14;;;;;;;4.43;3.00;;;27.20;42.30;;;;;;4977797;28;20672;-72
2022/07/19 06:40:41;;;;;;;4.28;3.00;;;27.30;42.10;;;;;;4977667;28;20197;-72
2022/07/19 06:43:10;;;;;;;3.72;3.08;;;27.30;42.00;;;;;;4995361;28;20225;-72
2022/07/19 06:45:36;;;;;;;3.30;3.00;;;27.40;41.80;;;;;;4977647;28;20651;-72
2022/07/19 06:48:06;;;;;;;5.60;3.03;;;27.50;41.70;;;;;;4977632;28;20201;-72
2022/07/19 06:50:33;;;;;;;3.88;3.05;;;27.60;41.60;;;;;;4995199;28;20214;-73
2022/07/19 06:53:00;;;;;;;4.72;3.15;;;27.60;41.40;;;;;;4977488;28;20229;-72
2022/07/19 06:55:27;;;;;;;5.47;3.30;;;27.70;41.30;;;;;;4977402;28;20225;-72
2022/07/19 06:57:55;;;;;;;5.30;3.45;;;27.80;41.30;;;;;;4977555;28;20228;-71
2022/07/19 07:00:22;;;;;;;7.13;3.40;;;27.90;41.10;;;;;;4977803;28;20197;-72
2022/07/19 07:02:49;;;;;;;4.28;3.13;;;27.90;41.00;;;;;;4977370;28;20307;-72
2022/07/19 07:05:17;;;;;;;4.53;3.60;;;28.00;40.80;;;;;;4977316;28;20233;-72
2022/07/19 07:07:44;;;;;;;4.32;3.47;;;28.00;40.70;;;;;;4994691;28;20189;-72
2022/07/19 07:10:11;;;;;;;3.45;3.15;;;28.10;40.60;;;;;;4995264;28;20192;-72
2022/07/19 07:12:38;;;;;;;4.90;3.40;;;28.10;40.40;;;;;;4994927;28;20185;-72
2022/07/19 07:15:07;;;;;;;5.47;3.30;;;28.20;40.40;;;;;;4977404;28;20640;-72
2022/07/19 07:17:34;;;;;;;4.78;3.20;;;28.20;40.30;;;;;;4977470;28;20204;-72
2022/07/19 07:20:01;;;;;;;5.07;3.28;;;28.30;40.10;;;;;;4994900;28;20192;-72
2022/07/19 07:22:29;;;;;;;4.78;3.28;;;28.40;39.90;;;;;;4995425;28;20235;-72
2022/07/19 07:24:56;;;;;;;3.72;3.22;;;28.40;39.70;;;;;;4978562;28;20221;-72
2022/07/19 07:27:23;;;;;;;5.25;3.15;;;28.50;39.70;;;;;;4977836;28;20216;-71
2022/07/19 07:29:50;;;;;;;3.65;3.22;;;28.50;39.50;;;;;;4977410;28;20201;-72
2022/07/19 07:32:17;;;;;;;3.60;3.20;;;28.60;39.30;;;;;;4977634;28;20224;-72
2022/07/19 07:34:45;;;;;;;4.10;3.35;;;28.70;39.20;;;;;;4977061;28;20772;-72
2022/07/19 07:37:11;;;;;;;5.07;3.13;;;28.70;39.10;;;;;;4977088;28;20205;-72
2022/07/19 07:39:40;;;;;;;3.30;3.03;;;28.80;39.00;;;;;;4977361;28;20200;-72
2022/07/19 07:42:07;;;;;;;4.88;3.42;;;28.80;38.90;;;;;;4976747;28;20217;-71
2022/07/19 07:44:34;;;;;;;7.47;3.38;;;28.90;38.80;;;;;;4976791;28;20224;-72
2022/07/19 07:47:01;;;;;;;4.45;3.03;;;28.90;38.70;;;;;;4976842;28;20248;-71
2022/07/19 07:49:30;;;;;;;5.90;3.25;;;29.00;38.50;;;;;;4976723;28;20208;-72
2022/07/19 07:51:57;;;;;;;3.03;2.80;;;29.00;38.40;;;;;;4976665;28;20193;-72
2022/07/19 07:54:23;;;;;;;4.40;3.03;;;29.00;38.40;;;;;;4976814;28;20228;-72
2022/07/19 07:56:52;;;;;;;5.53;3.20;;;29.10;38.30;;;;;;4976941;28;20553;-73
2022/07/19 07:59:19;;;;;;;3.50;3.17;;;29.10;38.50;;;;;;5187649;23;20318;-71
2022/07/19 08:01:46;;;;;;;6.53;3.33;;;29.10;38.30;;;;;;5155644;23;20257;-71
2022/07/19 08:04:13;;;;;;;3.83;3.00;;;29.10;38.50;;;;;;5024152;28;20257;-71
2022/07/19 08:06:40;;;;;;;3.47;3.17;;;29.10;38.20;;;;;;5053343;28;20282;-71
2022/07/19 08:09:07;;;;;;;4.63;3.00;;;29.20;38.10;;;;;;5035623;28;20678;-70
2022/07/19 08:11:34;;;;;;;3.88;3.08;;;29.30;38.10;;;;;;5035537;28;20218;-72
2022/07/19 08:14:03;;;;;;;3.45;2.95;;;29.30;38.70;;;;;;5053192;28;20241;-72
2022/07/19 08:16:30;;;;;;;4.53;2.80;;;29.40;38.10;;;;;;5035269;28;20298;-71
2022/07/19 08:18:58;;;;;;;5.68;3.15;;;29.40;37.90;;;;;;5035264;28;20199;-71
2022/07/19 08:21:24;;;;;;;4.28;3.10;;;29.40;38.20;;;;;;5035277;28;20201;-71
2022/07/19 08:23:53;;;;;;;3.20;2.78;;;29.30;38.30;;;;;;5035055;28;20763;-71
2022/07/19 08:26:20;;;;;;;3.20;2.90;;;29.40;38.10;;;;;;5034988;28;20198;-71
2022/07/19 08:28:48;;;;;;;5.32;3.05;;;29.40;37.80;;;;;;5035064;28;20224;-72
2022/07/19 08:31:17;;;;;;;5.40;3.08;;;29.40;37.70;;;;;;5034971;28;20237;-71
2022/07/19 08:33:44;;;;;;;5.03;3.20;;;29.50;37.70;;;;;;5035889;28;20218;-71
2022/07/19 08:36:11;;;;;;;4.22;2.88;;;29.50;37.60;;;;;;5034889;28;20244;-71
2022/07/19 08:38:39;;;;;;;4.55;3.03;;;29.50;37.70;;;;;;5034993;28;20229;-70
2022/07/19 08:41:06;;;;;;;4.68;2.97;;;29.50;37.60;;;;;;5034827;28;20223;-71
2022/07/19 08:46:11;;;;;;;4.40;2.50;;;29.50;37.50;;;;;;5064898;22;20248;-71
2022/07/19 08:48:40;;;;;;;4.43;2.88;;;29.50;37.60;;;;;;5015151;28;20225;-71
2022/07/19 08:51:07;;;;;;;5.18;2.80;;;29.50;37.70;;;;;;5014965;28;20206;-72
2022/07/19 08:53:37;;;;;;;4.78;2.63;;;29.50;37.70;;;;;;5037880;28;20210;-71
2022/07/19 08:57:56;;;;;;;2.60;2.35;;;29.40;37.90;;;;;;5056348;28;20172;-71
2022/07/19 08:58:53;;;;;;;4.60;3.08;;;29.40;37.80;;;;;;5038524;28;20222;-71
2022/07/19 09:01:20;;;;;;;3.10;2.70;;;29.40;38.00;;;;;;5038578;28;20264;-71
2022/07/19 09:04:15;;;;;;;5.38;2.78;;;29.40;37.90;;;;;;5125710;23;20231;-71
2022/07/19 09:06:44;;;;;;;3.97;2.65;;;29.40;37.90;;;;;;5018785;28;20195;-73
2022/07/19 09:09:11;;;;;;;4.53;2.85;;;29.30;38.00;;;;;;5189145;23;20231;-71
2022/07/19 09:11:48;;;;;;;3.13;2.53;;;29.30;37.50;;;;;;5018542;28;20212;-71
2022/07/19 09:14:16;;;;;;;2.55;2.33;;;29.20;37.60;;;;;;5027114;28;20222;-72
2022/07/19 09:16:54;;;;;;;5.57;2.63;;;29.20;37.60;;;;;;5038906;28;20272;-70
2022/07/19 09:19:22;;;;;;;2.60;2.40;;;29.10;37.50;;;;;;5056394;28;20189;-71
2022/07/19 09:21:57;;;;;;;2.75;2.20;;;29.10;37.60;;;;;;5269590;22;20238;-70
2022/07/19 09:24:24;;;;;;;3.05;2.50;;;29.00;37.50;;;;;;5025927;28;20233;-71
2022/07/19 09:29:43;;;;;;;5.47;2.50;;;29.00;37.30;;;;;;5093292;22;20342;-71
2022/07/19 09:32:12;;;;;;;3.72;2.60;;;29.00;37.30;;;;;;5018825;28;20206;-71
2022/07/19 09:34:41;;;;;;;6.07;2.60;;;28.90;37.50;;;;;;5030047;28;20226;-72
2022/07/19 09:37:10;;;;;;;5.63;2.47;;;29.00;37.50;;;;;;5037993;28;20252;-71
2022/07/19 09:39:39;;;;;;;4.00;2.15;;;29.00;37.10;;;;;;5037682;28;20644;-72
2022/07/19 09:42:06;;;;;;;6.55;2.63;;;29.10;36.70;;;;;;5301191;22;20251;-71
2022/07/19 09:47:09;;;;;;;5.65;2.53;;;29.30;36.50;;;;;;4994393;28;20700;-73
2022/07/19 09:49:36;;;;;;;2.55;2.33;;;29.30;36.40;;;;;;4998413;28;20189;-71
2022/07/19 09:52:05;;;;;;;3.10;2.38;;;29.40;36.60;;;;;;5039018;23;20233;-72
2022/07/19 09:54:32;;;;;;;3.97;2.60;;;29.40;36.60;;;;;;4978728;28;20570;-72
2022/07/19 09:57:00;;;;;;;3.47;2.35;;;29.40;36.60;;;;;;4996600;28;20688;-72
2022/07/19 09:59:27;;;;;;;3.63;2.45;;;29.30;36.80;;;;;;5062140;23;20236;-72
2022/07/19 10:01:55;;;;;;;4.22;2.55;;;29.30;36.90;;;;;;4996403;28;20251;-73
2022/07/19 10:04:23;;;;;;;3.53;2.50;;;29.30;37.20;;;;;;4977861;28;20224;-72
2022/07/19 10:06:50;;;;;;;3.47;2.40;;;29.30;37.50;;;;;;4978952;28;20196;-72
2022/07/19 10:09:19;;;;;;;2.40;2.10;;;29.30;37.40;;;;;;4996647;28;20184;-72
2022/07/19 10:11:46;;;;;;;5.80;2.20;;;29.20;37.60;;;;;;4979576;28;20197;-72
2022/07/19 10:14:13;;;;;;;2.85;2.38;;;29.20;37.80;;;;;;5000962;28;20223;-72
2022/07/19 10:19:18;;;;;;;4.80;2.50;;;29.10;37.90;;;;;;5051717;22;20259;-72
2022/07/19 10:21:45;;;;;;;2.60;2.40;;;29.10;38.00;;;;;;4997801;28;20258;-73
2022/07/19 10:24:12;;;;;;;6.10;2.30;;;29.10;38.00;;;;;;4997586;28;20238;-73
2022/07/19 10:26:42;;;;;;;6.13;2.70;;;29.10;38.20;;;;;;5014211;28;20204;-72
2022/07/19 10:29:09;;;;;;;6.90;2.30;;;29.00;38.70;;;;;;5143796;22;20256;-72
2022/07/19 10:31:36;;;;;;;3.42;2.70;;;29.00;38.60;;;;;;4978141;28;20207;-71
2022/07/19 10:34:04;;;;;;;4.20;2.50;;;29.00;38.60;;;;;;5138388;23;20241;-72
2022/07/19 10:36:33;;;;;;;3.22;2.30;;;29.00;38.90;;;;;;4977819;28;20285;-73
2022/07/19 10:39:23;;;;;;;4.05;2.40;;;29.00;39.40;;;;;;4978153;28;20197;-72
2022/07/19 10:42:09;;;;;;;3.85;2.30;;;28.90;39.40;;;;;;4995274;28;20585;-72
2022/07/19 10:44:36;;;;;;;8.82;2.45;;;28.90;39.00;;;;;;4979178;28;20225;-72
2022/07/19 10:47:03;;;;;;;9.10;2.90;;;28.90;39.40;;;;;;5386703;22;20228;-71
2022/07/19 10:49:43;;;;;;;6.25;2.42;;;28.80;39.70;;;;;;4977963;28;20228;-72
2022/07/19 10:52:32;;;;;;;5.15;2.50;;;28.80;39.50;;;;;;4977678;28;20287;-73
2022/07/19 10:55:24;;;;;;;4.25;2.55;;;28.70;39.80;;;;;;4977448;28;20221;-72
2022/07/19 10:57:54;;;;;;;3.08;2.30;;;28.60;39.60;;;;;;4977491;28;20197;-72
2022/07/19 11:00:22;;;;;;;4.72;2.40;;;28.60;39.80;;;;;;4977454;28;20208;-72
2022/07/19 11:05:26;;;;;;;4.13;2.22;;;28.50;40.00;;;;;;5015217;28;20218;-67
2022/07/19 11:07:54;;;;;;;3.50;2.20;;;28.50;40.10;;;;;;5016488;28;20202;-67
2022/07/19 11:10:25;;;;;;;3.88;2.40;;;28.50;40.10;;;;;;5015757;28;20208;-67
2022/07/19 11:12:53;;;;;;;2.97;2.47;;;28.50;40.30;;;;;;5014378;28;20246;-67
2022/07/19 11:15:20;;;;;;;2.90;2.40;;;28.40;40.20;;;;;;4996813;28;20207;-67
2022/07/19 11:17:54;;;;;;;3.38;2.33;;;28.40;40.20;;;;;;4996986;28;20192;-67
2022/07/19 11:20:23;;;;;;;4.13;2.20;;;28.40;40.30;;;;;;5125563;22;20607;-70
2022/07/19 11:22:50;;;;;;;2.45;2.25;;;28.30;40.30;;;;;;5014481;23;21118;-71
2022/07/19 11:25:17;;;;;;;4.18;2.40;;;28.30;40.20;;;;;;5086608;23;21602;-71
2022/07/19 11:27:45;;;;;;;3.90;2.20;;;28.20;40.30;;;;;;4957145;28;20301;-72
2022/07/19 11:30:14;;;;;;;5.03;2.20;;;28.20;40.30;;;;;;4957600;28;20197;-71
2022/07/19 11:32:42;;;;;;;4.78;2.47;;;28.20;40.80;;;;;;4957623;28;20562;-72
2022/07/19 11:35:11;;;;;;;2.88;2.55;;;28.20;40.70;;;;;;4957495;28;20244;-72
2022/07/19 11:37:39;;;;;;;3.17;2.17;;;28.10;40.70;;;;;;4957817;28;20202;-71
2022/07/19 11:40:07;;;;;;;2.60;2.38;;;28.10;40.90;;;;;;4957642;28;20197;-72
2022/07/19 11:42:36;;;;;;;3.15;1.85;;;28.10;41.00;;;;;;4957404;28;20572;-71
2022/07/19 11:45:15;;;;;;;3.13;2.00;;;28.10;41.10;;;;;;4957191;28;20284;-72
2022/07/19 11:47:43;;;;;;;2.65;2.22;;;28.10;41.20;;;;;;4975310;28;20606;-71
2022/07/19 11:50:11;;;;;;;3.55;2.00;;;28.10;41.20;;;;;;4957435;28;20656;-72
2022/07/19 11:52:45;;;;;;;3.25;2.20;;;28.00;41.20;;;;;;4957545;28;20201;-72
2022/07/19 11:55:13;;;;;;;2.30;2.10;;;28.00;41.20;;;;;;4957472;28;20220;-72
2022/07/19 11:57:40;;;;;;;4.13;2.20;;;28.00;41.20;;;;;;4957442;28;20686;-72
2022/07/19 12:00:09;;;;;;;2.65;2.35;;;28.00;41.20;;;;;;4974570;28;20189;-71
2022/07/19 12:02:56;;;;;;;2.50;2.30;;;28.00;41.30;;;;;;4974926;28;20194;-71
2022/07/19 12:05:23;;;;;;;2.90;2.15;;;28.00;41.30;;;;;;4974692;28;20304;-72
2022/07/19 12:07:51;;;;;;;3.70;2.42;;;27.90;41.30;;;;;;4957428;28;20248;-72
2022/07/19 12:10:38;;;;;;;3.22;2.20;;;27.90;41.40;;;;;;4957170;28;20573;-71
2022/07/19 12:13:07;;;;;;;2.10;2.00;;;27.90;41.50;;;;;;4956997;28;20236;-71
2022/07/19 12:15:51;;;;;;;2.20;2.00;;;27.80;41.40;;;;;;4957044;28;20308;-72
2022/07/19 12:18:20;;;;;;;2.92;2.03;;;27.80;41.60;;;;;;4974863;28;20178;-71
2022/07/19 12:21:16;;;;;;;2.55;2.00;;;27.80;41.60;;;;;;4957188;28;20303;-72
2022/07/19 12:23:43;;;;;;;2.25;2.08;;;27.70;41.60;;;;;;4974250;28;20276;-71
2022/07/19 12:26:11;;;;;;;2.65;2.05;;;27.70;41.70;;;;;;4974283;28;20205;-71
2022/07/19 12:28:38;;;;;;;3.03;2.33;;;27.70;41.70;;;;;;4959539;28;20197;-72
2022/07/19 12:31:05;;;;;;;4.22;2.08;;;27.70;41.70;;;;;;4978291;28;20189;-72
2022/07/19 12:33:33;;;;;;;3.10;2.20;;;27.70;41.80;;;;;;4978722;28;20252;-71
2022/07/19 12:36:00;;;;;;;4.22;2.10;;;27.70;42.30;;;;;;4962134;28;20576;-72
2022/07/19 12:38:28;;;;;;;3.53;2.00;;;27.70;41.70;;;;;;4961195;28;20201;-70
2022/07/19 12:41:05;;;;;;;2.58;2.35;;;27.70;41.70;;;;;;4978161;28;20196;-72
2022/07/19 12:43:33;;;;;;;2.22;2.03;;;27.70;41.70;;;;;;4961288;28;20323;-72
2022/07/19 12:46:01;;;;;;;2.00;1.90;;;27.70;41.70;;;;;;4960804;28;20388;-72
2022/07/19 12:48:28;;;;;;;2.20;1.98;;;27.70;41.80;;;;;;4960656;28;20205;-71
2022/07/19 12:50:57;;;;;;;2.53;2.17;;;27.70;41.80;;;;;;4977902;28;20271;-71
2022/07/19 12:53:24;;;;;;;3.65;1.73;;;27.70;41.80;;;;;;4978040;28;20190;-72
2022/07/19 12:55:51;;;;;;;3.50;2.00;;;27.70;41.90;;;;;;4978222;28;20225;-71
2022/07/19 13:01:00;;;;;;;3.97;2.30;;;27.70;41.90;;;;;;4959787;28;20244;-71
2022/07/19 13:03:27;;;;;;;2.40;2.13;;;27.70;41.90;;;;;;4960502;28;20202;-72
2022/07/19 13:05:56;;;;;;;2.20;2.00;;;27.70;42.00;;;;;;4960880;28;20264;-71
2022/07/19 13:08:23;;;;;;;2.15;1.95;;;27.70;42.00;;;;;;4961001;28;20725;-71
2022/07/19 13:10:50;;;;;;;2.30;2.00;;;27.70;42.00;;;;;;4960682;28;20382;-72